Terminal Aerodrome Forecast
Issued by NWS

Home | Current Version | Previous Version | Graphics & Text | Print | Product List | Glossary On
Versions: 1 2 3 4 5 6 7 8 9 10 11 12 13 14 15 16 17 18 19 20 21
000
FTUS43 KMPX 180200 AAA
TAFAXN
TAF AMD
KAXN 180223Z 1802/1824 10006KT 2SM BR OVC002
     FM180500 14005KT 4SM BR SCT003 OVC009
      TEMPO 1810/1814 4SM TSRA BKN008CB
     FM181600 22008KT P6SM BKN015
     FM181900 25008KT P6SM VCSH BKN050 OVC100=

USA.gov is the U.S. government's official web portal to all federal, state and local government web resources and services.